Mehama, Oregon
Current Conditions -  °F | °C
As of 7:56 PM on Sunday 23 Nov 2014 (Local Time) from KSLE Reporting Station
Overcast Overcast  
Wind Chill: 51°   Ceiling: 6500
Heat Index: 51°   Visibility: 10mi
Dew Point: 48°   Wind: 8mph
Humidity: 89%   Direction: 160°SSE
Pressure: 30.34"   Gusts: NA
Location:  44.79°N, 122.62°W
Report Text: KSLE 240356Z 16007KT 10SM FEW034 OVC065 11/09 A3034 RMK AO2 RAB14E27 SLP274 P0000 T01060089
Loading
Personal Weather Stations






























Interactive Weather Map New forecast layout! Learn more

10-Day Weather Forecast

Advertisements
Track Severe Weather on mobile